Ambleside, United Kingdom
Current Conditions -  °F | °C
As of 5:50 AM on Sunday 26 Oct 2014 (Local Time) from EGOM Reporting Station
Broken Clouds Broken Clouds  
Wind Chill: 11°   Ceiling: 3100
Heat Index: 11°   Visibility: 6mi
Dew Point:   Wind: 28mph
Humidity: 82%   Direction: 230°SW
Pressure: 29.77"   Gusts: 40mph
Location:  54.43°N, 2.96°W
Report Text: EGOM 260450Z AUTO 23024G35KT 9999 SCT017/// SCT024/// BKN031/// 11/08 Q1008 RERA
Loading
Personal Weather Stations






























Interactive Weather Map
Tropical Storm Tracking
New forecast layout! Learn more

10-Day Weather Forecast

Advertisements
Track Severe Weather on mobile